createdAt,value
2018-06-20T00:03:09.234Z,21.2
2018-06-20T00:08:06.418Z,21.2
2018-06-20T00:13:03.317Z,20.6
2018-06-20T00:18:00.675Z,20.6
2018-06-20T00:22:57.805Z,21.1
2018-06-20T00:27:55.087Z,20.5
2018-06-20T00:32:52.222Z,21
2018-06-20T00:37:49.393Z,20.4
2018-06-20T00:42:46.648Z,20.7
2018-06-20T00:47:43.823Z,20.3
2018-06-20T00:52:40.889Z,20.9
2018-06-20T00:57:38.148Z,20.9
2018-06-20T01:02:35.411Z,20.8
2018-06-20T01:07:32.655Z,20.3
2018-06-20T01:12:29.989Z,20.8
2018-06-20T01:17:27.627Z,20.1
2018-06-20T01:22:24.656Z,20.6
2018-06-20T01:27:22.264Z,20.1
2018-06-20T01:32:19.648Z,20.6
2018-06-20T01:37:17.136Z,20.6
2018-06-20T01:42:14.413Z,20
2018-06-20T01:47:11.652Z,20.6
2018-06-20T01:52:08.784Z,20.5
2018-06-20T01:57:05.925Z,19.9
2018-06-20T02:02:02.972Z,20.4
2018-06-20T02:06:59.882Z,20.4
2018-06-20T02:11:57.228Z,19.8
2018-06-20T02:16:54.403Z,19.8
2018-06-20T02:21:51.585Z,20.3
2018-06-20T02:26:48.747Z,20.3
2018-06-20T02:31:46.172Z,19.7
2018-06-20T02:36:43.864Z,19.6
2018-06-20T02:41:41.230Z,20.1
2018-06-20T02:46:38.544Z,19.5
2018-06-20T02:51:35.765Z,19.5
2018-06-20T02:56:32.857Z,19.4
2018-06-20T03:01:30.015Z,19.9
2018-06-20T03:06:27.256Z,19.3
2018-06-20T03:11:24.326Z,19.8
2018-06-20T03:16:21.677Z,19.3
2018-06-20T03:21:19.222Z,19.3
2018-06-20T03:26:16.698Z,19.2
2018-06-20T03:31:14.314Z,19.5
2018-06-20T03:36:11.608Z,19.8
2018-06-20T03:41:09.299Z,19.7
2018-06-20T03:46:06.355Z,19.7
2018-06-20T03:51:03.770Z,19.1
2018-06-20T03:56:00.989Z,19.1
2018-06-20T04:00:58.184Z,19.1
2018-06-20T04:05:54.947Z,19.7
2018-06-20T04:10:52.200Z,19.7
2018-06-20T04:15:49.257Z,19.7
2018-06-20T04:20:46.627Z,19.2
2018-06-20T04:25:43.756Z,19.8
2018-06-20T04:30:41.185Z,19.8
2018-06-20T04:35:38.645Z,19.8
2018-06-20T04:40:42.724Z,19.3
2018-06-20T04:45:37.905Z,19.9
2018-06-20T04:50:35.064Z,19.3
2018-06-20T04:55:32.536Z,19.5
2018-06-20T05:00:29.732Z,19.3
2018-06-20T05:05:27.124Z,19.4
2018-06-20T05:10:24.279Z,19.5
2018-06-20T05:15:21.499Z,20
2018-06-20T05:20:18.240Z,20.1
2018-06-20T05:25:15.307Z,19.6
2018-06-20T05:30:12.646Z,19.7
2018-06-20T05:35:09.925Z,19.7
2018-06-20T05:40:07.314Z,19.7
2018-06-20T05:45:04.127Z,20.4
2018-06-20T05:50:01.290Z,20.4
2018-06-20T05:54:58.629Z,19.9
2018-06-20T05:59:56.120Z,19.3
2018-06-20T06:04:53.196Z,20.6
2018-06-20T06:09:49.846Z,20.6
2018-06-20T06:14:46.768Z,20.7
2018-06-20T06:19:44.055Z,20.2
2018-06-20T06:24:40.972Z,20.8
2018-06-20T06:29:38.348Z,20.9
2018-06-20T06:34:35.150Z,20.7
2018-06-20T06:39:32.192Z,21
2018-06-20T06:44:29.310Z,20.1
2018-06-20T06:49:26.267Z,21.1
2018-06-20T06:54:23.353Z,21.2
2018-06-20T06:59:20.626Z,21.2
2018-06-20T07:04:17.815Z,20.8
2018-06-20T07:09:14.898Z,21.4
2018-06-20T07:14:11.810Z,18.5
2018-06-20T07:19:08.927Z,21.5
2018-06-20T07:24:05.926Z,21.5
2018-06-20T07:29:03.441Z,21.6
2018-06-20T07:34:00.228Z,21.6
2018-06-20T07:38:57.737Z,21.7
2018-06-20T07:43:55.178Z,21.8
2018-06-20T07:48:52.576Z,21.8
2018-06-20T07:53:49.597Z,21.4
2018-06-20T07:58:46.450Z,22
2018-06-20T08:03:43.901Z,22.1
2018-06-20T08:08:41.354Z,22
2018-06-20T08:13:38.677Z,22.2
2018-06-20T08:18:35.974Z,21.8
2018-06-20T08:23:33.519Z,21.9
2018-06-20T08:28:30.060Z,22
2018-06-20T08:33:27.271Z,22.6
2018-06-20T08:38:24.372Z,22.3
2018-06-20T08:43:21.918Z,22.8
2018-06-20T08:48:18.975Z,22.3
2018-06-20T08:53:16.125Z,23
2018-06-20T08:58:13.399Z,22.5
2018-06-20T09:03:10.321Z,23.2
2018-06-20T09:08:07.589Z,22.8
2018-06-20T09:13:05.107Z,22.9
2018-06-20T09:18:02.804Z,23
2018-06-20T09:23:02.580Z,23.7
2018-06-20T09:28:00.018Z,23.9
2018-06-20T09:32:57.269Z,24.1
2018-06-20T09:37:54.729Z,24.4
2018-06-20T09:42:52.058Z,24.5
2018-06-20T09:47:49.335Z,24.6
2018-06-20T09:52:46.343Z,24.6
2018-06-20T09:57:43.734Z,24.5
2018-06-20T10:02:41.288Z,24.5
2018-06-20T10:07:44.699Z,24.5
2018-06-20T10:12:40.708Z,24.8
2018-06-20T10:17:38.136Z,24.5
2018-06-20T10:22:35.314Z,24.5
2018-06-20T10:27:32.667Z,25
2018-06-20T10:32:29.960Z,25.1
2018-06-20T10:37:27.666Z,25.2
2018-06-20T10:42:24.707Z,25.4
2018-06-20T10:47:24.293Z,25.5
2018-06-20T10:52:21.418Z,25.7
2018-06-20T10:57:18.715Z,25.3
2018-06-20T11:02:16.157Z,25.8
2018-06-20T11:07:14.696Z,25.3
2018-06-20T11:12:12.034Z,26.2
2018-06-20T11:17:09.236Z,26.2
2018-06-20T11:22:06.716Z,25.6
2018-06-20T11:27:10.282Z,26.4
2018-06-20T11:32:06.351Z,26.9
2018-06-20T11:37:03.779Z,26.6
2018-06-20T11:42:01.388Z,27.3
2018-06-20T11:46:59.232Z,24.4
2018-06-20T11:51:56.743Z,27.6
2018-06-20T11:56:54.253Z,27.8
2018-06-20T12:01:51.172Z,27.8
2018-06-20T12:06:48.088Z,27.4
2018-06-20T12:11:45.193Z,27.6
2018-06-20T12:16:48.878Z,28.4
2018-06-20T12:21:44.708Z,28.1
2018-06-20T12:26:42.252Z,28.3
2018-06-20T12:31:39.860Z,28.3
2018-06-20T12:36:37.402Z,28.9
2018-06-20T12:41:34.722Z,28.5
2018-06-20T12:46:32.413Z,29.1
2018-06-20T12:51:30.041Z,29.2
2018-06-20T12:56:27.445Z,28.8
2018-06-20T13:01:24.603Z,28.8
2018-06-20T13:06:21.830Z,29.6
2018-06-20T13:11:19.472Z,30.6
2018-06-20T13:16:17.515Z,31
2018-06-20T13:21:15.513Z,31.1
2018-06-20T13:26:13.376Z,30.8
2018-06-20T13:31:10.563Z,30.5
2018-06-20T13:36:07.883Z,30.4
2018-06-20T13:41:05.013Z,30.2
2018-06-20T13:46:02.340Z,29.6
2018-06-20T13:50:59.690Z,29.9
2018-06-20T13:55:56.855Z,29.2
2018-06-20T14:00:54.128Z,29.8
2018-06-20T14:05:51.169Z,29.7
2018-06-20T14:10:48.771Z,29.6
2018-06-20T14:15:46.129Z,29.3
2018-06-20T14:20:43.275Z,28.6
2018-06-20T14:25:40.762Z,28.6
2018-06-20T14:30:38.212Z,28.6
2018-06-20T14:35:35.694Z,28.6
2018-06-20T14:40:32.951Z,29
2018-06-20T14:45:30.063Z,28.5
2018-06-20T14:50:27.035Z,28.5
2018-06-20T14:55:24.435Z,29
2018-06-20T15:00:21.427Z,29
2018-06-20T15:05:18.867Z,29
2018-06-20T15:10:15.624Z,29
2018-06-20T15:15:13.130Z,29
2018-06-20T15:20:10.560Z,29
2018-06-20T15:25:07.851Z,28.5
2018-06-20T15:30:04.968Z,28.4
2018-06-20T15:35:02.638Z,28.4
2018-06-20T15:39:59.690Z,28.5
2018-06-20T15:44:57.357Z,28.6
2018-06-20T15:49:54.639Z,29.1
2018-06-20T15:54:51.981Z,28.6
2018-06-20T15:59:49.192Z,28.7
2018-06-20T16:04:46.414Z,28.6
2018-06-20T16:09:43.630Z,29.1
2018-06-20T16:14:40.915Z,28.5
2018-06-20T16:19:37.636Z,28.8
2018-06-20T16:24:34.956Z,28.2
2018-06-20T16:29:31.952Z,28
2018-06-20T16:34:30.387Z,27.9
2018-06-20T16:39:27.149Z,27.8
2018-06-20T16:44:24.632Z,27.6
2018-06-20T16:49:21.606Z,27.6
2018-06-20T16:54:18.769Z,27.4
2018-06-20T16:59:16.121Z,27.3
2018-06-20T17:04:13.237Z,27.2
2018-06-20T17:09:10.269Z,27.1
2018-06-20T17:14:07.892Z,27.5
2018-06-20T17:19:05.151Z,26.9
2018-06-20T17:24:02.546Z,27.2
2018-06-20T17:28:59.605Z,26.6
2018-06-20T17:33:57.261Z,27
2018-06-20T17:38:54.674Z,26.9
2018-06-20T17:43:51.944Z,26.8
2018-06-20T17:48:48.861Z,26.7
2018-06-20T17:53:46.389Z,26.6
2018-06-20T17:58:43.559Z,26.5
2018-06-20T18:03:40.709Z,25.9
2018-06-20T18:08:38.048Z,26.3
2018-06-20T18:13:35.396Z,26.2
2018-06-20T18:18:32.709Z,26.1
2018-06-20T18:23:30.079Z,26.1
2018-06-20T18:28:27.178Z,26
2018-06-20T18:33:24.515Z,25.9
2018-06-20T18:38:21.710Z,25.9
2018-06-20T18:43:18.850Z,25.8
2018-06-20T18:48:16.228Z,25.8
2018-06-20T18:53:13.558Z,25.7
2018-06-20T18:58:10.422Z,25.7
2018-06-20T19:03:08.073Z,25.6
2018-06-20T19:08:04.985Z,25.6
2018-06-20T19:13:02.452Z,25.6
2018-06-20T19:18:00.099Z,25.5
2018-06-20T19:22:57.382Z,25.5
2018-06-20T19:27:54.789Z,25.5
2018-06-20T19:32:52.043Z,24.3
2018-06-20T19:37:49.072Z,25.4
2018-06-20T19:42:46.294Z,25.4
2018-06-20T19:47:43.512Z,25.3
2018-06-20T19:52:40.891Z,25.3
2018-06-20T19:57:38.103Z,25.3
2018-06-20T20:02:35.378Z,25.2
2018-06-20T20:07:32.625Z,24.9
2018-06-20T20:12:29.820Z,25.1
2018-06-20T20:17:26.758Z,23
2018-06-20T20:22:23.876Z,25
2018-06-20T20:27:21.203Z,24.7
2018-06-20T20:32:18.531Z,24.9
2018-06-20T20:37:15.794Z,24.6
2018-06-20T20:42:12.987Z,24.8
2018-06-20T20:47:10.237Z,24.7
2018-06-20T20:52:07.785Z,24.6
2018-06-20T20:57:04.956Z,24.6
2018-06-20T21:02:02.058Z,24.5
2018-06-20T21:06:59.152Z,24.5
2018-06-20T21:11:56.413Z,23.9
2018-06-20T21:16:53.527Z,23.9
2018-06-20T21:21:50.877Z,24.4
2018-06-20T21:26:48.252Z,23.7
2018-06-20T21:31:45.112Z,24.3
2018-06-20T21:36:42.120Z,24.2
2018-06-20T21:41:39.520Z,24.2
2018-06-20T21:46:36.645Z,24.1
2018-06-20T21:51:33.892Z,23.5
2018-06-20T21:56:31.425Z,23.5
2018-06-20T22:01:28.508Z,24
2018-06-20T22:06:26.004Z,23.4
2018-06-20T22:11:23.475Z,23.3
2018-06-20T22:16:20.816Z,23.3
2018-06-20T22:21:18.407Z,23.3
2018-06-20T22:26:16.324Z,23.2
2018-06-20T22:31:13.918Z,23.1
2018-06-20T22:36:10.863Z,23.6
2018-06-20T22:41:07.786Z,23.6
2018-06-20T22:46:05.229Z,22.9
2018-06-20T22:51:02.749Z,23.4
2018-06-20T22:56:00.100Z,22.8
2018-06-20T23:00:57.460Z,23.3
2018-06-20T23:05:54.543Z,22.7
2018-06-20T23:10:51.968Z,22.7
2018-06-20T23:15:49.148Z,23.2
2018-06-20T23:20:46.550Z,23.1
2018-06-20T23:25:43.793Z,22.5
2018-06-20T23:30:40.897Z,23.1
2018-06-20T23:35:37.911Z,22.5
2018-06-20T23:40:35.433Z,22.5
2018-06-20T23:45:32.725Z,22.9
2018-06-20T23:50:30.116Z,22.3
2018-06-20T23:55:27.400Z,22.8
